sensor_id;sensor_type;location;lat;lon;timestamp;pressure;altitude;pressure_sealevel;temperature;humidity
10145;BME280;5113;41.822;23.564;2022-10-01T00:00:55;-11260.91;;;11.80;100.00
10145;BME280;5113;41.822;23.564;2022-10-01T00:04:01;-11241.34;;;11.10;100.00
10145;BME280;5113;41.822;23.564;2022-10-01T00:07:09;-11247.13;;;11.31;100.00
10145;BME280;5113;41.822;23.564;2022-10-01T00:10:18;-11257.81;;;11.69;100.00
10145;BME280;5113;41.822;23.564;2022-10-01T00:13:25;-11254.28;;;11.56;100.00
10145;BME280;5113;41.822;23.564;2022-10-01T00:16:31;-11245.44;;;11.24;100.00
10145;BME280;5113;41.822;23.564;2022-10-01T00:19:37;-11255.41;;;11.61;100.00
10145;BME280;5113;41.822;23.564;2022-10-01T00:22:45;-11255.41;;;11.61;100.00
10145;BME280;5113;41.822;23.564;2022-10-01T00:25:51;-11249.78;;;11.40;100.00
10145;BME280;5113;41.822;23.564;2022-10-01T00:28:59;-11239.50;;;11.03;100.00
10145;BME280;5113;41.822;23.564;2022-10-01T00:32:06;-11243.59;;;11.18;100.00
10145;BME280;5113;41.822;23.564;2022-10-01T00:35:13;-11227.13;;;10.58;100.00
10145;BME280;5113;41.822;23.564;2022-10-01T00:38:21;-11240.91;;;11.08;100.00
10145;BME280;5113;41.822;23.564;2022-10-01T00:41:29;-11231.06;;;10.73;100.00
10145;BME280;5113;41.822;23.564;2022-10-01T00:44:37;-11240.50;;;11.07;100.00
10145;BME280;5113;41.822;23.564;2022-10-01T00:47:47;-11233.59;;;10.82;100.00
10145;BME280;5113;41.822;23.564;2022-10-01T00:50:54;-11233.31;;;10.81;100.00
10145;BME280;5113;41.822;23.564;2022-10-01T00:54:06;-11248.66;;;11.36;100.00
10145;BME280;5113;41.822;23.564;2022-10-01T00:57:16;-11234.31;;;10.84;100.00
10145;BME280;5113;41.822;23.564;2022-10-01T01:00:23;-11241.34;;;11.10;100.00
10145;BME280;5113;41.822;23.564;2022-10-01T01:03:30;-11246.56;;;11.29;100.00
10145;BME280;5113;41.822;23.564;2022-10-01T01:06:36;-11235.88;;;10.90;100.00
10145;BME280;5113;41.822;23.564;2022-10-01T01:09:46;-11244.31;;;11.20;100.00
10145;BME280;5113;41.822;23.564;2022-10-01T01:13:02;-11241.47;;;11.10;100.00
10145;BME280;5113;41.822;23.564;2022-10-01T01:16:17;-11248.53;;;11.36;100.00
10145;BME280;5113;41.822;23.564;2022-10-01T01:19:42;-11240.78;;;11.08;100.00
10145;BME280;5113;41.822;23.564;2022-10-01T01:23:06;-11227.97;;;10.62;100.00
10145;BME280;5113;41.822;23.564;2022-10-01T01:26:25;-11236.28;;;10.91;100.00
10145;BME280;5113;41.822;23.564;2022-10-01T01:29:40;-11231.63;;;10.75;100.00
10145;BME280;5113;41.822;23.564;2022-10-01T01:32:51;-11241.34;;;11.10;100.00
10145;BME280;5113;41.822;23.564;2022-10-01T01:36:02;-11225.72;;;10.53;100.00
10145;BME280;5113;41.822;23.564;2022-10-01T01:39:12;-11240.63;;;11.07;100.00
10145;BME280;5113;41.822;23.564;2022-10-01T01:42:23;-11227.56;;;10.60;100.00
10145;BME280;5113;41.822;23.564;2022-10-01T01:45:34;-11231.63;;;10.75;100.00
10145;BME280;5113;41.822;23.564;2022-10-01T01:48:44;-11245.56;;;11.25;100.00
10145;BME280;5113;41.822;23.564;2022-10-01T01:51:55;-11235.59;;;10.89;100.00
10145;BME280;5113;41.822;23.564;2022-10-01T01:55:04;-11254.72;;;11.58;100.00
10145;BME280;5113;41.822;23.564;2022-10-01T01:58:12;-11247.97;;;11.34;100.00
10145;BME280;5113;41.822;23.564;2022-10-01T02:01:34;-11229.53;;;10.67;100.00
10145;BME280;5113;41.822;23.564;2022-10-01T02:04:44;-11236.28;;;10.91;100.00
10145;BME280;5113;41.822;23.564;2022-10-01T02:11:33;-11246.28;;;11.28;100.00
10145;BME280;5113;41.822;23.564;2022-10-01T02:14:46;-11249.66;;;11.40;100.00
10145;BME280;5113;41.822;23.564;2022-10-01T02:18:02;-11246.84;;;11.30;100.00
10145;BME280;5113;41.822;23.564;2022-10-01T02:21:18;-11240.91;;;11.08;100.00
10145;BME280;5113;41.822;23.564;2022-10-01T02:24:32;-11235.03;;;10.87;100.00
10145;BME280;5113;41.822;23.564;2022-10-01T02:27:45;-11238.09;;;10.98;100.00
10145;BME280;5113;41.822;23.564;2022-10-01T02:30:54;-11248.53;;;11.36;100.00
10145;BME280;5113;41.822;23.564;2022-10-01T02:34:06;-11239.78;;;11.04;100.00
10145;BME280;5113;41.822;23.564;2022-10-01T02:37:20;-11247.41;;;11.32;100.00
10145;BME280;5113;41.822;23.564;2022-10-01T02:40:29;-11250.22;;;11.42;100.00
10145;BME280;5113;41.822;23.564;2022-10-01T02:43:41;-11251.63;;;11.47;100.00
10145;BME280;5113;41.822;23.564;2022-10-01T02:46:53;-11239.94;;;11.05;100.00
10145;BME280;5113;41.822;23.564;2022-10-01T02:50:04;-11232.47;;;10.78;100.00
10145;BME280;5113;41.822;23.564;2022-10-01T02:53:18;-11236.72;;;10.93;100.00
10145;BME280;5113;41.822;23.564;2022-10-01T02:56:26;-11229.09;;;10.66;100.00
10145;BME280;5113;41.822;23.564;2022-10-01T02:59:54;-11245.84;;;11.26;100.00
10145;BME280;5113;41.822;23.564;2022-10-01T03:03:01;-11219.81;;;10.32;100.00
10145;BME280;5113;41.822;23.564;2022-10-01T03:06:08;-11222.06;;;10.40;100.00
10145;BME280;5113;41.822;23.564;2022-10-01T03:09:14;-11219.41;;;10.31;100.00
10145;BME280;5113;41.822;23.564;2022-10-01T03:12:21;-11237.69;;;10.97;100.00
10145;BME280;5113;41.822;23.564;2022-10-01T03:15:28;-11244.72;;;11.22;100.00
10145;BME280;5113;41.822;23.564;2022-10-01T03:18:34;-11242.75;;;11.15;100.00
10145;BME280;5113;41.822;23.564;2022-10-01T03:21:41;-11242.03;;;11.12;100.00
10145;BME280;5113;41.822;23.564;2022-10-01T03:24:47;-11238.66;;;11.00;100.00
10145;BME280;5113;41.822;23.564;2022-10-01T03:27:53;-11231.63;;;10.75;100.00
10145;BME280;5113;41.822;23.564;2022-10-01T03:31:04;-11220.53;;;10.35;100.00
10145;BME280;5113;41.822;23.564;2022-10-01T03:34:10;-11244.31;;;11.20;100.00
10145;BME280;5113;41.822;23.564;2022-10-01T03:37:18;-11247.41;;;11.32;100.00
10145;BME280;5113;41.822;23.564;2022-10-01T03:40:24;-11238.66;;;11.00;100.00
10145;BME280;5113;41.822;23.564;2022-10-01T03:43:30;-11227.97;;;10.62;100.00
10145;BME280;5113;41.822;23.564;2022-10-01T03:46:36;-11250.78;;;11.44;100.00
10145;BME280;5113;41.822;23.564;2022-10-01T03:49:43;-11253.88;;;11.55;100.00
10145;BME280;5113;41.822;23.564;2022-10-01T03:52:50;-11249.66;;;11.40;100.00
10145;BME280;5113;41.822;23.564;2022-10-01T03:55:57;-11246.00;;;11.27;100.00
10145;BME280;5113;41.822;23.564;2022-10-01T03:59:04;-11250.34;;;11.42;100.00
10145;BME280;5113;41.822;23.564;2022-10-01T04:02:10;-11249.94;;;11.41;100.00
10145;BME280;5113;41.822;23.564;2022-10-01T04:05:17;-11250.78;;;11.44;100.00
10145;BME280;5113;41.822;23.564;2022-10-01T04:08:24;-11241.19;;;11.09;100.00
10145;BME280;5113;41.822;23.564;2022-10-01T04:11:30;-11250.22;;;11.42;100.00
10145;BME280;5113;41.822;23.564;2022-10-01T04:14:37;-11252.59;;;11.50;100.00
10145;BME280;5113;41.822;23.564;2022-10-01T04:17:43;-11255.28;;;11.60;100.00
10145;BME280;5113;41.822;23.564;2022-10-01T04:20:50;-11250.50;;;11.43;100.00
10145;BME280;5113;41.822;23.564;2022-10-01T04:23:57;-11250.22;;;11.42;100.00
10145;BME280;5113;41.822;23.564;2022-10-01T04:27:04;-11248.94;;;11.37;100.00
10145;BME280;5113;41.822;23.564;2022-10-01T04:30:10;-11259.50;;;11.75;100.00
10145;BME280;5113;41.822;23.564;2022-10-01T04:33:17;-11253.16;;;11.52;100.00
10145;BME280;5113;41.822;23.564;2022-10-01T04:36:24;-11262.03;;;11.84;100.00
10145;BME280;5113;41.822;23.564;2022-10-01T04:39:31;-11265.97;;;11.99;100.00
10145;BME280;5113;41.822;23.564;2022-10-01T04:42:38;-11248.81;;;11.37;100.00
10145;BME280;5113;41.822;23.564;2022-10-01T04:45:45;-11253.31;;;11.53;100.00
10145;BME280;5113;41.822;23.564;2022-10-01T04:48:51;-11250.78;;;11.44;100.00
10145;BME280;5113;41.822;23.564;2022-10-01T04:51:57;-11248.38;;;11.35;100.00
10145;BME280;5113;41.822;23.564;2022-10-01T04:55:06;-11252.31;;;11.49;100.00
10145;BME280;5113;41.822;23.564;2022-10-01T04:58:12;-11266.53;;;12.01;100.00
10145;BME280;5113;41.822;23.564;2022-10-01T05:01:18;-11266.25;;;12.00;100.00
10145;BME280;5113;41.822;23.564;2022-10-01T05:04:25;-11271.47;;;12.18;100.00
10145;BME280;5113;41.822;23.564;2022-10-01T05:07:33;-11274.12;;;12.28;100.00
10145;BME280;5113;41.822;23.564;2022-10-01T05:10:41;-11273.72;;;12.27;100.00
10145;BME280;5113;41.822;23.564;2022-10-01T05:13:47;-11266.13;;;11.99;100.00
10145;BME280;5113;41.822;23.564;2022-10-01T05:16:54;-11289.19;;;12.82;100.00
10145;BME280;5113;41.822;23.564;2022-10-01T05:20:01;-11281.03;;;12.53;100.00
10145;BME280;5113;41.822;23.564;2022-10-01T05:23:08;-11293.84;;;12.99;100.00
10145;BME280;5113;41.822;23.564;2022-10-01T05:26:15;-11292.72;;;12.95;100.00
10145;BME280;5113;41.822;23.564;2022-10-01T05:29:21;-11291.72;;;12.92;100.00
10145;BME280;5113;41.822;23.564;2022-10-01T05:32:28;-11310.03;;;13.58;100.00
10145;BME280;5113;41.822;23.564;2022-10-01T05:35:34;-11303.97;;;13.36;100.00
10145;BME280;5113;41.822;23.564;2022-10-01T05:38:40;-11322.28;;;14.02;100.00
10145;BME280;5113;41.822;23.564;2022-10-01T05:41:48;-11318.19;;;13.87;100.00
10145;BME280;5113;41.822;23.564;2022-10-01T05:44:54;-11327.63;;;14.21;100.00
10145;BME280;5113;41.822;23.564;2022-10-01T05:48:02;-11308.91;;;13.53;100.00
10145;BME280;5113;41.822;23.564;2022-10-01T05:51:09;-11310.88;;;13.61;100.00
10145;BME280;5113;41.822;23.564;2022-10-01T05:54:19;-11328.47;;;14.24;100.00
10145;BME280;5113;41.822;23.564;2022-10-01T05:57:28;-11336.38;;;14.52;100.00
10145;BME280;5113;41.822;23.564;2022-10-01T06:00:34;-11354.38;;;15.17;100.00
10145;BME280;5113;41.822;23.564;2022-10-01T06:03:40;-11357.50;;;15.29;100.00
10145;BME280;5113;41.822;23.564;2022-10-01T06:06:47;-11345.53;;;14.85;100.00
10145;BME280;5113;41.822;23.564;2022-10-01T06:09:54;-11369.47;;;15.72;100.00
10145;BME280;5113;41.822;23.564;2022-10-01T06:13:03;-11380.88;;;16.13;100.00
10145;BME280;5113;41.822;23.564;2022-10-01T06:16:09;-11365.66;;;15.58;100.00
10145;BME280;5113;41.822;23.564;2022-10-01T06:19:15;-11373.41;;;15.86;100.00
10145;BME280;5113;41.822;23.564;2022-10-01T06:22:21;-11369.75;;;15.73;100.00
10145;BME280;5113;41.822;23.564;2022-10-01T06:25:28;-11382.16;;;16.17;100.00
10145;BME280;5113;41.822;23.564;2022-10-01T06:28:36;-11371.28;;;15.78;100.00
10145;BME280;5113;41.822;23.564;2022-10-01T06:31:42;-11384.53;;;16.26;100.00
10145;BME280;5113;41.822;23.564;2022-10-01T06:34:48;-11376.38;;;15.97;100.00
10145;BME280;5113;41.822;23.564;2022-10-01T06:37:54;-11397.09;;;16.71;100.00
10145;BME280;5113;41.822;23.564;2022-10-01T06:41:01;-11383.84;;;16.24;100.00
10145;BME280;5113;41.822;23.564;2022-10-01T06:44:09;-11372.44;;;15.82;100.00
10145;BME280;5113;41.822;23.564;2022-10-01T06:47:16;-11377.22;;;16.00;100.00
10145;BME280;5113;41.822;23.564;2022-10-01T06:50:22;-11383.41;;;16.22;100.00
10145;BME280;5113;41.822;23.564;2022-10-01T06:53:29;-11385.53;;;16.30;100.00
10145;BME280;5113;41.822;23.564;2022-10-01T06:56:35;-11382.84;;;16.20;100.00
10145;BME280;5113;41.822;23.564;2022-10-01T06:59:42;-11396.09;;;16.68;100.00
10145;BME280;5113;41.822;23.564;2022-10-01T07:02:49;-11378.91;;;16.06;100.00
10145;BME280;5113;41.822;23.564;2022-10-01T07:06:00;-11378.34;;;16.04;100.00
10145;BME280;5113;41.822;23.564;2022-10-01T07:09:07;-11381.72;;;16.16;100.00
10145;BME280;5113;41.822;23.564;2022-10-01T07:12:14;-11376.94;;;15.99;100.00
10145;BME280;5113;41.822;23.564;2022-10-01T07:15:21;-11376.66;;;15.98;100.00
10145;BME280;5113;41.822;23.564;2022-10-01T07:18:27;-11372.16;;;15.81;100.00
10145;BME280;5113;41.822;23.564;2022-10-01T07:21:34;-11375.94;;;15.95;100.00
10145;BME280;5113;41.822;23.564;2022-10-01T07:24:40;-11382.56;;;16.19;100.00
10145;BME280;5113;41.822;23.564;2022-10-01T07:27:47;-11364.41;;;15.53;100.00
10145;BME280;5113;41.822;23.564;2022-10-01T07:30:59;-11374.13;;;15.89;100.00
10145;BME280;5113;41.822;23.564;2022-10-01T07:34:05;-11372.16;;;15.81;100.00
10145;BME280;5113;41.822;23.564;2022-10-01T07:37:12;-11373.13;;;15.85;100.00
10145;BME280;5113;41.822;23.564;2022-10-01T07:40:18;-11380.88;;;16.13;100.00
10145;BME280;5113;41.822;23.564;2022-10-01T07:43:24;-11371.00;;;15.77;100.00
10145;BME280;5113;41.822;23.564;2022-10-01T07:46:32;-11374.25;;;15.89;100.00
10145;BME280;5113;41.822;23.564;2022-10-01T07:49:38;-11375.66;;;15.94;100.00
10145;BME280;5113;41.822;23.564;2022-10-01T07:52:44;-11362.84;;;15.48;100.00
10145;BME280;5113;41.822;23.564;2022-10-01T07:55:54;-11375.53;;;15.94;100.00
10145;BME280;5113;41.822;23.564;2022-10-01T07:59:01;-11369.47;;;15.72;100.00
10145;BME280;5113;41.822;23.564;2022-10-01T08:02:12;-11368.19;;;15.67;100.00
10145;BME280;5113;41.822;23.564;2022-10-01T08:05:20;-11366.22;;;15.60;100.00
10145;BME280;5113;41.822;23.564;2022-10-01T08:08:27;-11372.56;;;15.83;100.00
10145;BME280;5113;41.822;23.564;2022-10-01T08:11:35;-11374.69;;;15.91;100.00
10145;BME280;5113;41.822;23.564;2022-10-01T08:14:41;-11374.25;;;15.89;100.00
10145;BME280;5113;41.822;23.564;2022-10-01T08:17:49;-11373.00;;;15.84;100.00
10145;BME280;5113;41.822;23.564;2022-10-01T08:20:55;-11372.44;;;15.82;100.00
10145;BME280;5113;41.822;23.564;2022-10-01T08:24:01;-11377.22;;;16.00;100.00
10145;BME280;5113;41.822;23.564;2022-10-01T08:27:08;-11370.16;;;15.74;100.00
10145;BME280;5113;41.822;23.564;2022-10-01T08:30:14;-11364.97;;;15.56;100.00
10145;BME280;5113;41.822;23.564;2022-10-01T08:33:22;-11354.38;;;15.17;100.00
10145;BME280;5113;41.822;23.564;2022-10-01T08:36:28;-11354.94;;;15.19;100.00
10145;BME280;5113;41.822;23.564;2022-10-01T08:39:35;-11372.16;;;15.81;100.00
10145;BME280;5113;41.822;23.564;2022-10-01T08:42:53;-11374.69;;;15.91;100.00
10145;BME280;5113;41.822;23.564;2022-10-01T08:46:02;-11379.31;;;16.07;100.00
10145;BME280;5113;41.822;23.564;2022-10-01T08:49:16;-11385.38;;;16.29;100.00
10145;BME280;5113;41.822;23.564;2022-10-01T08:52:27;-11388.75;;;16.41;100.00
10145;BME280;5113;41.822;23.564;2022-10-01T08:55:35;-11386.66;;;16.34;100.00
10145;BME280;5113;41.822;23.564;2022-10-01T08:58:45;-11386.09;;;16.32;100.00
10145;BME280;5113;41.822;23.564;2022-10-01T09:01:53;-11388.75;;;16.41;100.00
10145;BME280;5113;41.822;23.564;2022-10-01T09:05:04;-11394.97;;;16.64;100.00
10145;BME280;5113;41.822;23.564;2022-10-01T09:08:19;-11389.91;;;16.45;100.00
10145;BME280;5113;41.822;23.564;2022-10-01T09:11:36;-11377.91;;;16.02;100.00
10145;BME280;5113;41.822;23.564;2022-10-01T09:14:57;-11385.09;;;16.28;100.00
10145;BME280;5113;41.822;23.564;2022-10-01T09:18:17;-11392.28;;;16.54;100.00
10145;BME280;5113;41.822;23.564;2022-10-01T09:21:40;-11393.97;;;16.60;100.00
10145;BME280;5113;41.822;23.564;2022-10-01T09:24:57;-11396.94;;;16.71;100.00
10145;BME280;5113;41.822;23.564;2022-10-01T09:28:10;-11392.84;;;16.56;100.00
10145;BME280;5113;41.822;23.564;2022-10-01T09:31:21;-11381.44;;;16.15;100.00
10145;BME280;5113;41.822;23.564;2022-10-01T09:34:34;-11390.75;;;16.48;100.00
10145;BME280;5113;41.822;23.564;2022-10-01T09:37:48;-11402.28;;;16.90;100.00
10145;BME280;5113;41.822;23.564;2022-10-01T09:40:58;-11401.72;;;16.88;100.00
10145;BME280;5113;41.822;23.564;2022-10-01T09:44:09;-11421.59;;;17.60;100.00
10145;BME280;5113;41.822;23.564;2022-10-01T09:47:23;-11421.75;;;17.60;100.00
10145;BME280;5113;41.822;23.564;2022-10-01T09:50:39;-11415.53;;;17.38;100.00
10145;BME280;5113;41.822;23.564;2022-10-01T09:53:53;-11423.88;;;17.68;100.00
10145;BME280;5113;41.822;23.564;2022-10-01T09:57:08;-11413.56;;;17.31;100.00
10145;BME280;5113;41.822;23.564;2022-10-01T10:00:17;-11426.25;;;17.76;100.00
10145;BME280;5113;41.822;23.564;2022-10-01T10:03:26;-11428.38;;;17.84;100.00
10145;BME280;5113;41.822;23.564;2022-10-01T10:06:34;-11442.75;;;18.36;100.00
10145;BME280;5113;41.822;23.564;2022-10-01T10:09:43;-11441.19;;;18.30;100.00
10145;BME280;5113;41.822;23.564;2022-10-01T10:12:54;-11436.97;;;18.15;100.00
10145;BME280;5113;41.822;23.564;2022-10-01T10:16:07;-11443.88;;;18.40;100.00
10145;BME280;5113;41.822;23.564;2022-10-01T10:19:19;-11464.88;;;19.16;100.00
10145;BME280;5113;41.822;23.564;2022-10-01T10:22:27;-11464.88;;;19.16;100.00
10145;BME280;5113;41.822;23.564;2022-10-01T10:25:34;-11471.66;;;19.40;100.00
10145;BME280;5113;41.822;23.564;2022-10-01T10:28:43;-11459.81;;;18.97;100.00
10145;BME280;5113;41.822;23.564;2022-10-01T10:31:50;-11460.25;;;18.99;100.00
10145;BME280;5113;41.822;23.564;2022-10-01T10:35:01;-11472.66;;;19.43;100.00
10145;BME280;5113;41.822;23.564;2022-10-01T10:38:15;-11479.28;;;19.67;100.00
10145;BME280;5113;41.822;23.564;2022-10-01T10:41:26;-11499.59;;;20.40;100.00
10145;BME280;5113;41.822;23.564;2022-10-01T10:44:36;-11466.00;;;19.20;100.00
10145;BME280;5113;41.822;23.564;2022-10-01T10:47:44;-11495.50;;;20.26;100.00
10145;BME280;5113;41.822;23.564;2022-10-01T10:50:58;-11510.31;;;20.79;100.00
10145;BME280;5113;41.822;23.564;2022-10-01T10:54:16;-11510.44;;;20.80;100.00
10145;BME280;5113;41.822;23.564;2022-10-01T10:57:26;-11530.63;;;21.52;100.00
10145;BME280;5113;41.822;23.564;2022-10-01T11:00:35;-11526.81;;;21.38;100.00
10145;BME280;5113;41.822;23.564;2022-10-01T11:03:51;-11558.28;;;22.52;100.00
10145;BME280;5113;41.822;23.564;2022-10-01T11:06:59;-11551.09;;;22.26;100.00
10145;BME280;5113;41.822;23.564;2022-10-01T11:10:21;-11537.81;;;21.78;100.00
10145;BME280;5113;41.822;23.564;2022-10-01T11:13:58;-11529.06;;;21.47;100.00
10145;BME280;5113;41.822;23.564;2022-10-01T11:17:26;-11538.53;;;21.81;100.00
10145;BME280;5113;41.822;23.564;2022-10-01T11:20:40;-11532.59;;;21.59;100.00
10145;BME280;5113;41.822;23.564;2022-10-01T11:24:08;-11512.00;;;20.85;100.00
10145;BME280;5113;41.822;23.564;2022-10-01T11:27:24;-11524.56;;;21.30;100.00
10145;BME280;5113;41.822;23.564;2022-10-01T11:30:38;-11517.06;;;21.03;100.00
10145;BME280;5113;41.822;23.564;2022-10-01T11:37:37;-11508.63;;;20.73;100.00
10145;BME280;5113;41.822;23.564;2022-10-01T11:40:48;-11499.31;;;20.39;100.00
10145;BME280;5113;41.822;23.564;2022-10-01T11:43:59;-11501.56;;;20.48;100.00
10145;BME280;5113;41.822;23.564;2022-10-01T11:47:13;-11479.69;;;19.69;100.00
10145;BME280;5113;41.822;23.564;2022-10-01T11:50:26;-11497.03;;;20.31;100.00
10145;BME280;5113;41.822;23.564;2022-10-01T11:53:38;-11493.66;;;20.19;100.00
10145;BME280;5113;41.822;23.564;2022-10-01T11:56:50;-11488.59;;;20.01;100.00
10145;BME280;5113;41.822;23.564;2022-10-01T12:00:15;-11491.13;;;20.10;100.00
10145;BME280;5113;41.822;23.564;2022-10-01T12:03:29;-11490.13;;;20.06;100.00
10145;BME280;5113;41.822;23.564;2022-10-01T12:06:42;-11486.47;;;19.93;100.00
10145;BME280;5113;41.822;23.564;2022-10-01T12:09:57;-11509.31;;;20.75;100.00
10145;BME280;5113;41.822;23.564;2022-10-01T12:13:11;-11528.78;;;21.46;100.00
10145;BME280;5113;41.822;23.564;2022-10-01T12:16:28;-11524.00;;;21.28;100.00
10145;BME280;5113;41.822;23.564;2022-10-01T12:19:41;-11544.16;;;22.01;100.00
10145;BME280;5113;41.822;23.564;2022-10-01T12:22:50;-11536.56;;;21.73;100.00
10145;BME280;5113;41.822;23.564;2022-10-01T12:26:05;-11542.75;;;21.96;100.00
10145;BME280;5113;41.822;23.564;2022-10-01T12:29:17;-11550.38;;;22.23;100.00
10145;BME280;5113;41.822;23.564;2022-10-01T12:32:35;-11569.28;;;22.91;98.79
10145;BME280;5113;41.822;23.564;2022-10-01T12:35:54;-11581.16;;;23.34;92.32
10145;BME280;5113;41.822;23.564;2022-10-01T12:39:13;-11577.75;;;23.22;86.18
10145;BME280;5113;41.822;23.564;2022-10-01T12:42:42;-11595.81;;;23.87;87.63
10145;BME280;5113;41.822;23.564;2022-10-01T12:45:59;-11575.63;;;23.14;92.80
10145;BME280;5113;41.822;23.564;2022-10-01T12:49:17;-11570.69;;;22.96;95.20
10145;BME280;5113;41.822;23.564;2022-10-01T12:52:34;-11597.22;;;23.92;91.62
10145;BME280;5113;41.822;23.564;2022-10-01T12:55:53;-11588.78;;;23.61;90.71
10145;BME280;5113;41.822;23.564;2022-10-01T12:59:11;-11567.59;;;22.85;94.96
10145;BME280;5113;41.822;23.564;2022-10-01T13:02:39;-11586.09;;;23.52;92.88
10145;BME280;5113;41.822;23.564;2022-10-01T13:06:00;-11596.25;;;23.88;90.34
10145;BME280;5113;41.822;23.564;2022-10-01T13:09:16;-11593.84;;;23.80;91.87
10145;BME280;5113;41.822;23.564;2022-10-01T13:12:41;-11570.13;;;22.94;100.00
10145;BME280;5113;41.822;23.564;2022-10-01T13:15:53;-11583.53;;;23.43;97.58
10145;BME280;5113;41.822;23.564;2022-10-01T13:19:04;-11569.00;;;22.90;98.60
10145;BME280;5113;41.822;23.564;2022-10-01T13:22:17;-11557.28;;;22.48;100.00
10145;BME280;5113;41.822;23.564;2022-10-01T13:25:36;-11573.09;;;23.05;96.93
10145;BME280;5113;41.822;23.564;2022-10-01T13:28:57;-11563.34;;;22.70;100.00
10145;BME280;5113;41.822;23.564;2022-10-01T13:32:25;-11556.03;;;22.44;100.00
10145;BME280;5113;41.822;23.564;2022-10-01T13:35:34;-11557.16;;;22.48;100.00
10145;BME280;5113;41.822;23.564;2022-10-01T13:38:44;-11585.94;;;23.51;100.00
10145;BME280;5113;41.822;23.564;2022-10-01T13:41:56;-11548.81;;;22.18;100.00
10145;BME280;5113;41.822;23.564;2022-10-01T13:45:07;-11544.16;;;22.01;100.00
10145;BME280;5113;41.822;23.564;2022-10-01T13:48:26;-11528.09;;;21.43;100.00
10145;BME280;5113;41.822;23.564;2022-10-01T13:51:36;-11522.03;;;21.21;100.00
10145;BME280;5113;41.822;23.564;2022-10-01T13:54:46;-11513.69;;;20.91;100.00
10145;BME280;5113;41.822;23.564;2022-10-01T13:58:02;-11521.03;;;21.18;100.00
10145;BME280;5113;41.822;23.564;2022-10-01T14:01:28;-11517.63;;;21.05;100.00
10145;BME280;5113;41.822;23.564;2022-10-01T14:04:37;-11520.19;;;21.15;100.00
10145;BME280;5113;41.822;23.564;2022-10-01T14:07:46;-11514.53;;;20.94;100.00
10145;BME280;5113;41.822;23.564;2022-10-01T14:10:56;-11507.63;;;20.69;100.00
10145;BME280;5113;41.822;23.564;2022-10-01T14:14:25;-11508.34;;;20.72;100.00
10145;BME280;5113;41.822;23.564;2022-10-01T14:17:53;-11520.88;;;21.17;100.00
10145;BME280;5113;41.822;23.564;2022-10-01T14:21:06;-11508.91;;;20.74;100.00
10145;BME280;5113;41.822;23.564;2022-10-01T14:24:21;-11492.25;;;20.14;100.00
10145;BME280;5113;41.822;23.564;2022-10-01T14:27:36;-11502.69;;;20.52;100.00
10145;BME280;5113;41.822;23.564;2022-10-01T14:30:53;-11490.69;;;20.08;100.00
10145;BME280;5113;41.822;23.564;2022-10-01T14:34:15;-11496.75;;;20.30;100.00
10145;BME280;5113;41.822;23.564;2022-10-01T14:37:26;-11489.72;;;20.05;100.00
10145;BME280;5113;41.822;23.564;2022-10-01T14:40:36;-11501.28;;;20.47;100.00
10145;BME280;5113;41.822;23.564;2022-10-01T14:43:42;-11495.22;;;20.25;100.00
10145;BME280;5113;41.822;23.564;2022-10-01T14:46:51;-11492.13;;;20.14;100.00
10145;BME280;5113;41.822;23.564;2022-10-01T14:50:08;-11493.53;;;20.19;100.00
10145;BME280;5113;41.822;23.564;2022-10-01T14:53:16;-11487.47;;;19.97;100.00
10145;BME280;5113;41.822;23.564;2022-10-01T14:56:24;-11499.59;;;20.40;100.00
10145;BME280;5113;41.822;23.564;2022-10-01T14:59:34;-11486.03;;;19.92;100.00
10145;BME280;5113;41.822;23.564;2022-10-01T15:02:45;-11488.88;;;20.02;100.00
10145;BME280;5113;41.822;23.564;2022-10-01T15:06:00;-11487.59;;;19.97;100.00
10145;BME280;5113;41.822;23.564;2022-10-01T15:09:12;-11494.66;;;20.23;100.00
10145;BME280;5113;41.822;23.564;2022-10-01T15:12:20;-11497.75;;;20.34;100.00
10145;BME280;5113;41.822;23.564;2022-10-01T15:15:32;-11498.44;;;20.36;100.00
10145;BME280;5113;41.822;23.564;2022-10-01T15:18:47;-11489.00;;;20.02;100.00
10145;BME280;5113;41.822;23.564;2022-10-01T15:21:59;-11487.19;;;19.96;100.00
10145;BME280;5113;41.822;23.564;2022-10-01T15:25:06;-11482.09;;;19.77;100.00
10145;BME280;5113;41.822;23.564;2022-10-01T15:28:13;-11483.50;;;19.83;100.00
10145;BME280;5113;41.822;23.564;2022-10-01T15:31:20;-11483.78;;;19.84;100.00
10145;BME280;5113;41.822;23.564;2022-10-01T15:34:28;-11488.31;;;20.00;100.00
10145;BME280;5113;41.822;23.564;2022-10-01T15:37:36;-11475.34;;;19.53;100.00
10145;BME280;5113;41.822;23.564;2022-10-01T15:40:43;-11476.88;;;19.59;100.00
10145;BME280;5113;41.822;23.564;2022-10-01T15:43:49;-11469.41;;;19.32;100.00
10145;BME280;5113;41.822;23.564;2022-10-01T15:47:14;-11465.88;;;19.19;100.00
10145;BME280;5113;41.822;23.564;2022-10-01T15:50:22;-11464.59;;;19.14;100.00
10145;BME280;5113;41.822;23.564;2022-10-01T15:53:30;-11459.13;;;18.95;100.00
10145;BME280;5113;41.822;23.564;2022-10-01T15:56:37;-11458.97;;;18.94;100.00
10145;BME280;5113;41.822;23.564;2022-10-01T15:59:46;-11466.31;;;19.21;100.00
10145;BME280;5113;41.822;23.564;2022-10-01T16:02:55;-11465.16;;;19.17;100.00
10145;BME280;5113;41.822;23.564;2022-10-01T16:06:05;-11453.34;;;18.74;100.00
10145;BME280;5113;41.822;23.564;2022-10-01T16:09:15;-11448.81;;;18.58;100.00
10145;BME280;5113;41.822;23.564;2022-10-01T16:12:22;-11451.34;;;18.67;100.00
10145;BME280;5113;41.822;23.564;2022-10-01T16:15:31;-11444.03;;;18.40;100.00
10145;BME280;5113;41.822;23.564;2022-10-01T16:18:38;-11440.22;;;18.27;100.00
10145;BME280;5113;41.822;23.564;2022-10-01T16:22:23;-11436.28;;;18.12;100.00
10145;BME280;5113;41.822;23.564;2022-10-01T16:25:30;-11435.28;;;18.09;100.00
10145;BME280;5113;41.822;23.564;2022-10-01T16:28:37;-11439.22;;;18.23;100.00
10145;BME280;5113;41.822;23.564;2022-10-01T16:31:44;-11425.97;;;17.75;100.00